Time;durP1;ratioP1;P1;durP2;ratioP2;P2;SDS_P1;SDS_P2;PMS_P1;PMS_P2;Temp;Humidity;BMP_temperature;BMP_pressure;BME280_temperature;BME280_humidity;BME280_pressure;Samples;Min_cycle;Max_cycle;Signal;HPM_P1;HPM_P2
2022/04/15 00:01:32;;;;;;;258.02;29.83;;;9.90;99.90;;;;;;5070490;28;20028;-87
2022/04/15 00:03:58;;;;;;;433.30;36.88;;;9.90;99.90;;;;;;5073740;28;20048;-87
2022/04/15 00:06:24;;;;;;;261.88;31.05;;;9.90;99.90;;;;;;5065878;28;20043;-87
2022/04/15 00:08:50;;;;;;;359.23;33.40;;;10.00;99.90;;;;;;5055905;28;20491;-87
2022/04/15 00:11:16;;;;;;;312.52;32.13;;;10.00;99.90;;;;;;5065703;28;20107;-87
2022/04/15 00:13:42;;;;;;;192.23;26.73;;;10.00;99.90;;;;;;5061637;28;20112;-88
2022/04/15 00:16:08;;;;;;;318.27;31.75;;;10.10;99.90;;;;;;5063592;28;20027;-88
2022/04/15 00:18:35;;;;;;;128.38;24.48;;;10.10;99.90;;;;;;5068750;28;20049;-87
2022/04/15 00:21:02;;;;;;;183.93;25.83;;;10.10;99.90;;;;;;5058835;28;20403;-88
2022/04/15 00:23:28;;;;;;;153.85;22.77;;;10.10;99.90;;;;;;5065438;28;20053;-88
2022/04/15 00:25:54;;;;;;;207.07;24.25;;;10.10;99.90;;;;;;5061590;28;20064;-87
2022/04/15 00:28:21;;;;;;;244.52;26.27;;;10.10;99.90;;;;;;5053730;28;20095;-88
2022/04/15 00:30:47;;;;;;;206.43;25.10;;;10.10;99.90;;;;;;5054487;28;20017;-88
2022/04/15 00:33:12;;;;;;;185.63;22.35;;;10.20;99.90;;;;;;5063057;28;20033;-88
2022/04/15 00:35:38;;;;;;;139.35;21.77;;;10.20;99.90;;;;;;5056330;28;20468;-86
2022/04/15 00:38:04;;;;;;;169.13;21.80;;;10.20;99.90;;;;;;5064210;28;20033;-88
2022/04/15 00:40:30;;;;;;;130.50;20.67;;;10.30;99.90;;;;;;5053561;28;20585;-88
2022/04/15 00:42:55;;;;;;;153.15;20.15;;;10.30;99.90;;;;;;5068654;28;20052;-88
2022/04/15 00:45:21;;;;;;;162.18;21.10;;;10.30;99.90;;;;;;5063488;28;20108;-88
2022/04/15 00:47:55;;;;;;;145.95;20.25;;;10.30;99.90;;;;;;5055675;28;20037;-88
2022/04/15 00:50:30;;;;;;;158.68;20.63;;;10.30;99.90;;;;;;5065282;28;20542;-87
2022/04/15 00:53:01;;;;;;;216.13;22.55;;;10.30;99.90;;;;;;5072774;28;20705;-88
2022/04/15 00:55:27;;;;;;;207.25;23.15;;;10.30;99.90;;;;;;5063293;28;20043;-88
2022/04/15 00:57:57;;;;;;;205.50;21.50;;;10.30;99.90;;;;;;5063436;28;20052;-87
2022/04/15 01:00:23;;;;;;;117.38;20.23;;;10.30;99.90;;;;;;5067674;28;20028;-88
2022/04/15 01:02:49;;;;;;;221.35;20.30;;;10.20;99.90;;;;;;5069082;28;20080;-87
2022/04/15 01:05:16;;;;;;;218.30;19.48;;;10.20;99.90;;;;;;5065234;28;20029;-88
2022/04/15 01:07:49;;;;;;;157.48;19.95;;;10.20;99.90;;;;;;5061970;28;20472;-88
2022/04/15 01:10:15;;;;;;;170.70;19.40;;;10.10;99.90;;;;;;5063445;28;20513;-88
2022/04/15 01:12:45;;;;;;;252.15;22.60;;;10.20;99.90;;;;;;5060189;28;20052;-88
2022/04/15 01:15:13;;;;;;;308.42;22.80;;;10.10;99.90;;;;;;5058665;28;20025;-88
2022/04/15 01:17:40;;;;;;;200.07;20.83;;;10.10;99.90;;;;;;5070505;28;20035;-88
2022/04/15 01:20:10;;;;;;;517.85;30.25;;;10.10;99.90;;;;;;5061913;28;20064;-87
2022/04/15 01:22:44;;;;;;;188.47;21.20;;;10.10;99.90;;;;;;5062916;28;20026;-88
2022/04/15 01:25:12;;;;;;;232.38;23.33;;;10.10;99.90;;;;;;5053612;28;20032;-88
2022/04/15 01:27:40;;;;;;;169.95;20.88;;;10.00;99.90;;;;;;5056860;28;20479;-87
2022/04/15 01:30:11;;;;;;;161.80;19.65;;;10.10;99.90;;;;;;5057145;28;20052;-87
2022/04/15 01:32:37;;;;;;;202.32;21.60;;;10.10;99.90;;;;;;5063874;28;20039;-88
2022/04/15 01:35:06;;;;;;;330.50;26.40;;;10.10;99.90;;;;;;5048268;28;20025;-87
2022/04/15 01:37:32;;;;;;;357.67;30.23;;;10.20;99.90;;;;;;5070466;28;20549;-88
2022/04/15 01:39:57;;;;;;;158.75;21.63;;;10.20;99.90;;;;;;5061047;28;20021;-86
2022/04/15 01:42:23;;;;;;;306.85;23.92;;;10.10;99.90;;;;;;5062567;28;20032;-87
2022/04/15 01:44:49;;;;;;;243.02;22.35;;;10.10;99.90;;;;;;5058318;28;20082;-87
2022/04/15 01:47:16;;;;;;;316.77;23.98;;;10.10;99.90;;;;;;5064960;28;21441;-88
2022/04/15 01:49:42;;;;;;;299.27;24.00;;;10.10;99.90;;;;;;5068760;28;20368;-88
2022/04/15 01:52:08;;;;;;;115.07;19.10;;;10.10;99.90;;;;;;5064952;28;20085;-88
2022/04/15 01:54:34;;;;;;;194.40;20.55;;;10.10;99.90;;;;;;5064163;28;20115;-88
2022/04/15 01:57:00;;;;;;;194.50;19.33;;;10.10;99.90;;;;;;5061755;28;20059;-88
2022/04/15 01:59:26;;;;;;;210.80;19.17;;;10.20;99.90;;;;;;5065323;28;20076;-88
2022/04/15 02:01:54;;;;;;;299.58;23.13;;;10.20;99.90;;;;;;5057289;28;20821;-89
2022/04/15 02:04:21;;;;;;;229.02;21.67;;;10.20;99.90;;;;;;5060802;28;20016;-88
2022/04/15 02:06:48;;;;;;;274.63;24.45;;;10.20;99.90;;;;;;5053693;28;20052;-89
2022/04/15 02:09:13;;;;;;;263.40;23.30;;;10.20;99.90;;;;;;5036638;28;20045;-88
2022/04/15 02:11:39;;;;;;;281.55;24.70;;;10.20;99.90;;;;;;5060089;28;20110;-88
2022/04/15 02:14:04;;;;;;;184.35;21.42;;;10.10;99.90;;;;;;5063048;28;20036;-88
2022/04/15 02:16:30;;;;;;;97.03;18.08;;;10.10;99.90;;;;;;5059492;28;20025;-88
2022/04/15 02:18:56;;;;;;;287.13;25.40;;;10.20;99.90;;;;;;5060279;28;20499;-88
2022/04/15 02:21:21;;;;;;;199.95;23.65;;;10.10;99.90;;;;;;5063854;28;20111;-88
2022/04/15 02:23:47;;;;;;;150.35;22.25;;;10.10;99.90;;;;;;5061806;28;20020;-88
2022/04/15 02:26:12;;;;;;;252.32;26.00;;;10.10;99.90;;;;;;5062372;28;20032;-87
2022/04/15 02:28:38;;;;;;;248.45;26.20;;;10.10;99.90;;;;;;5055052;28;20104;-88
2022/04/15 02:31:04;;;;;;;314.55;29.35;;;10.10;99.90;;;;;;5061130;28;20124;-88
2022/04/15 02:33:29;;;;;;;201.07;24.95;;;10.10;99.90;;;;;;5063533;28;20486;-87
2022/04/15 02:35:55;;;;;;;254.88;26.88;;;10.00;99.90;;;;;;5055817;28;20127;-88
2022/04/15 02:38:21;;;;;;;165.55;24.20;;;10.00;99.90;;;;;;5070884;28;20025;-87
2022/04/15 02:40:46;;;;;;;249.73;27.67;;;10.00;99.90;;;;;;5062208;28;20021;-87
2022/04/15 02:43:13;;;;;;;199.13;25.27;;;10.00;99.90;;;;;;5059343;28;20148;-88
2022/04/15 02:45:39;;;;;;;170.65;20.98;;;10.00;99.90;;;;;;5070532;28;20108;-88
2022/04/15 02:48:05;;;;;;;152.23;20.83;;;10.00;99.90;;;;;;5056603;28;20148;-87
2022/04/15 02:50:31;;;;;;;210.52;24.00;;;10.00;99.90;;;;;;5066461;28;20038;-88
2022/04/15 02:52:59;;;;;;;144.30;21.20;;;10.00;99.90;;;;;;5071540;28;20083;-88
2022/04/15 02:55:25;;;;;;;186.80;23.50;;;10.00;99.90;;;;;;5070446;28;20462;-88
2022/04/15 02:57:51;;;;;;;148.88;22.75;;;10.00;99.90;;;;;;5062409;28;20021;-88
2022/04/15 03:00:17;;;;;;;224.20;23.90;;;10.00;99.90;;;;;;5070853;28;20043;-88
2022/04/15 03:02:43;;;;;;;190.95;23.27;;;10.00;99.90;;;;;;5071303;28;20025;-88
2022/04/15 03:05:11;;;;;;;181.57;22.55;;;10.00;99.90;;;;;;5068072;28;20657;-88
2022/04/15 03:07:38;;;;;;;88.93;21.33;;;10.00;99.90;;;;;;5064479;28;20016;-88
2022/04/15 03:10:05;;;;;;;129.95;21.95;;;10.10;99.90;;;;;;5054563;28;20020;-88
2022/04/15 03:12:38;;;;;;;89.78;22.27;;;10.10;99.90;;;;;;5064743;28;20497;-88
2022/04/15 03:15:06;;;;;;;163.90;20.90;;;10.10;99.90;;;;;;5073028;28;20031;-89
2022/04/15 03:17:33;;;;;;;149.60;20.75;;;10.10;99.90;;;;;;5066026;28;20032;-88
2022/04/15 03:20:02;;;;;;;167.02;20.15;;;10.10;99.90;;;;;;5056980;28;20021;-88
2022/04/15 03:22:28;;;;;;;149.20;19.65;;;10.10;99.90;;;;;;5066049;28;20457;-87
2022/04/15 03:24:54;;;;;;;94.30;17.83;;;10.10;99.90;;;;;;5068334;28;20048;-87
2022/04/15 03:27:19;;;;;;;105.95;19.02;;;10.20;99.90;;;;;;5064046;28;20049;-88
2022/04/15 03:29:45;;;;;;;91.43;16.17;;;10.20;99.90;;;;;;5063408;28;20488;-87
2022/04/15 03:32:11;;;;;;;111.60;18.75;;;10.20;99.90;;;;;;5069042;28;20048;-87
2022/04/15 03:34:37;;;;;;;94.13;18.30;;;10.20;99.90;;;;;;5065456;28;20119;-88
2022/04/15 03:37:04;;;;;;;75.07;17.77;;;10.20;99.90;;;;;;5064969;28;20079;-87
2022/04/15 03:39:30;;;;;;;82.55;17.73;;;10.20;99.90;;;;;;5060851;28;20025;-88
2022/04/15 03:41:55;;;;;;;76.40;16.98;;;10.20;99.90;;;;;;5078286;28;20075;-88
2022/04/15 03:44:21;;;;;;;83.22;17.85;;;10.20;99.90;;;;;;5081134;28;20387;-88
2022/04/15 03:46:47;;;;;;;83.07;16.85;;;10.20;99.90;;;;;;5065470;28;20035;-88
2022/04/15 03:49:12;;;;;;;106.22;17.27;;;10.20;99.90;;;;;;5060232;28;20017;-88
2022/04/15 03:51:38;;;;;;;95.97;17.30;;;10.20;99.90;;;;;;5064501;28;20021;-87
2022/04/15 03:54:04;;;;;;;80.10;17.58;;;10.10;99.90;;;;;;5058125;28;20063;-88
2022/04/15 03:56:30;;;;;;;89.18;17.38;;;10.10;99.90;;;;;;5060860;28;20029;-87
2022/04/15 03:58:55;;;;;;;78.95;16.52;;;10.10;99.90;;;;;;5060891;28;20033;-86
2022/04/15 04:01:21;;;;;;;113.43;19.02;;;10.10;99.90;;;;;;5055276;28;20036;-87
2022/04/15 04:03:49;;;;;;;95.95;17.77;;;10.10;99.90;;;;;;5068275;28;20048;-87
2022/04/15 04:06:15;;;;;;;73.50;17.17;;;10.10;99.90;;;;;;5064613;28;20496;-87
2022/04/15 04:08:49;;;;;;;99.57;18.92;;;10.10;99.90;;;;;;5066760;28;20043;-87
2022/04/15 04:11:18;;;;;;;79.93;16.58;;;10.10;99.90;;;;;;5060276;28;20017;-87
2022/04/15 04:13:44;;;;;;;70.95;17.40;;;10.00;99.90;;;;;;5064271;28;20037;-87
2022/04/15 04:16:11;;;;;;;102.25;18.00;;;10.00;99.90;;;;;;5067214;28;20024;-87
2022/04/15 04:18:40;;;;;;;36.38;16.30;;;9.90;99.90;;;;;;5067631;28;20166;-87
2022/04/15 04:21:06;;;;;;;64.05;16.75;;;9.90;99.90;;;;;;5065153;28;20419;-87
2022/04/15 04:23:32;;;;;;;49.28;15.75;;;9.90;99.90;;;;;;5067134;28;20618;-87
2022/04/15 04:25:58;;;;;;;36.78;16.15;;;9.90;99.90;;;;;;5060235;28;20083;-86
2022/04/15 04:28:23;;;;;;;32.47;14.88;;;9.90;99.90;;;;;;5062533;28;20021;-87
2022/04/15 04:30:49;;;;;;;47.70;14.98;;;9.90;99.90;;;;;;5062938;28;20028;-87
2022/04/15 04:33:15;;;;;;;41.30;15.95;;;9.90;99.90;;;;;;5057633;28;20462;-87
2022/04/15 04:35:40;;;;;;;74.22;16.65;;;9.90;99.90;;;;;;5064739;28;20546;-85
2022/04/15 04:38:07;;;;;;;80.80;17.23;;;9.90;99.90;;;;;;5070684;28;20111;-86
2022/04/15 04:40:34;;;;;;;90.22;18.48;;;9.80;99.90;;;;;;5066064;28;20025;-87
2022/04/15 04:43:00;;;;;;;106.53;18.90;;;9.80;99.90;;;;;;5080005;28;20029;-87
2022/04/15 04:45:26;;;;;;;66.57;19.05;;;9.80;99.90;;;;;;5065138;28;20074;-88
2022/04/15 04:47:53;;;;;;;88.75;19.90;;;9.70;99.90;;;;;;5060385;28;20554;-87
2022/04/15 04:50:19;;;;;;;142.55;20.98;;;9.70;99.90;;;;;;5059547;28;20036;-87
2022/04/15 04:52:46;;;;;;;88.35;19.50;;;9.70;99.90;;;;;;5066054;28;20422;-87
2022/04/15 04:55:12;;;;;;;222.50;24.00;;;9.70;99.90;;;;;;5064139;28;20116;-87
2022/04/15 04:57:39;;;;;;;94.88;20.25;;;9.70;99.90;;;;;;5062286;28;20396;-87
2022/04/15 05:00:06;;;;;;;130.48;22.58;;;9.70;99.90;;;;;;5067742;28;20462;-87
2022/04/15 05:02:32;;;;;;;125.38;21.52;;;9.70;99.90;;;;;;5068442;28;20404;-88
2022/04/15 05:04:58;;;;;;;143.40;21.83;;;9.70;99.90;;;;;;5057837;28;20033;-86
2022/04/15 05:07:23;;;;;;;111.75;20.52;;;9.70;99.90;;;;;;5062937;28;20100;-87
2022/04/15 05:09:49;;;;;;;138.15;21.77;;;9.80;99.90;;;;;;5064318;28;20013;-87
2022/04/15 05:12:15;;;;;;;184.02;20.90;;;9.90;99.90;;;;;;5050974;28;20082;-87
2022/04/15 05:14:40;;;;;;;220.48;23.95;;;9.90;99.90;;;;;;5061608;28;20031;-87
2022/04/15 05:17:06;;;;;;;136.40;24.60;;;9.90;99.90;;;;;;5060339;28;20405;-88
2022/04/15 05:19:32;;;;;;;105.68;23.98;;;10.00;99.90;;;;;;5065344;28;20075;-87
2022/04/15 05:21:58;;;;;;;139.13;21.13;;;10.00;99.90;;;;;;5069966;28;20019;-87
2022/04/15 05:24:23;;;;;;;67.50;20.48;;;10.10;99.90;;;;;;5057793;28;20107;-87
2022/04/15 05:26:49;;;;;;;41.97;18.58;;;10.10;99.90;;;;;;5065769;28;20024;-87
2022/04/15 05:29:15;;;;;;;86.30;18.75;;;10.20;99.90;;;;;;5067381;28;20060;-88
2022/04/15 05:31:42;;;;;;;181.70;21.30;;;10.20;99.90;;;;;;5072173;28;20036;-87
2022/04/15 05:34:08;;;;;;;58.72;17.35;;;10.20;99.90;;;;;;5050920;28;20052;-88
2022/04/15 05:36:34;;;;;;;22.45;16.42;;;10.30;99.90;;;;;;5064542;28;20057;-87
2022/04/15 05:38:59;;;;;;;69.47;18.73;;;10.30;99.90;;;;;;5060492;28;20033;-86
2022/04/15 05:41:25;;;;;;;80.90;18.70;;;10.40;99.90;;;;;;5061479;28;20025;-87
2022/04/15 05:43:51;;;;;;;96.38;18.73;;;10.50;99.90;;;;;;5064911;28;20476;-87
2022/04/15 05:46:16;;;;;;;58.50;18.02;;;10.50;99.90;;;;;;5063601;28;20021;-87
2022/04/15 05:48:42;;;;;;;72.03;18.50;;;10.60;99.90;;;;;;5065242;28;20090;-87
2022/04/15 05:51:08;;;;;;;30.77;16.88;;;10.60;99.90;;;;;;5060894;28;20025;-87
2022/04/15 05:53:33;;;;;;;61.67;20.05;;;10.70;99.90;;;;;;5069703;28;20059;-87
2022/04/15 05:55:59;;;;;;;134.27;22.35;;;10.70;99.90;;;;;;5066705;28;20543;-88
2022/04/15 05:58:25;;;;;;;124.63;19.85;;;10.80;99.90;;;;;;5061414;28;20078;-88
2022/04/15 06:00:51;;;;;;;100.18;21.92;;;10.70;99.90;;;;;;5067348;28;20017;-87
2022/04/15 06:03:20;;;;;;;63.05;18.88;;;10.70;99.90;;;;;;5061664;28;20171;-88
2022/04/15 06:05:46;;;;;;;40.90;19.35;;;10.70;99.90;;;;;;5060028;28;20017;-88
2022/04/15 06:08:12;;;;;;;54.88;22.92;;;10.70;99.90;;;;;;5049501;28;20547;-87
2022/04/15 06:10:37;;;;;;;59.58;20.27;;;10.70;99.90;;;;;;5061848;28;20124;-87
2022/04/15 06:13:09;;;;;;;53.97;19.45;;;10.70;99.90;;;;;;5051495;28;20028;-87
2022/04/15 06:15:41;;;;;;;68.28;21.70;;;10.80;99.90;;;;;;5062300;28;20040;-87
2022/04/15 06:18:07;;;;;;;69.45;26.50;;;10.80;99.90;;;;;;5059073;28;20036;-87
2022/04/15 06:20:32;;;;;;;35.58;20.27;;;10.70;99.90;;;;;;5059731;28;20029;-86
2022/04/15 06:22:58;;;;;;;31.40;18.65;;;10.80;99.90;;;;;;5071530;28;20025;-86
2022/04/15 06:25:24;;;;;;;47.33;29.52;;;10.80;99.90;;;;;;5064669;28;20817;-88
2022/04/15 06:27:50;;;;;;;53.90;20.75;;;10.90;99.90;;;;;;5069197;28;20027;-86
2022/04/15 06:30:17;;;;;;;67.00;30.88;;;10.90;99.90;;;;;;5063693;28;20036;-87
2022/04/15 06:32:42;;;;;;;45.13;23.45;;;10.90;99.90;;;;;;5066649;28;20523;-87
2022/04/15 06:35:08;;;;;;;45.53;19.08;;;11.00;99.90;;;;;;5064606;28;20036;-88
2022/04/15 06:37:34;;;;;;;53.35;27.73;;;11.20;99.90;;;;;;5059548;28;20052;-88
2022/04/15 06:39:59;;;;;;;36.15;22.00;;;11.30;99.90;;;;;;5058392;28;20771;-88
2022/04/15 06:42:27;;;;;;;23.60;19.20;;;11.40;99.90;;;;;;5068394;28;20029;-87
2022/04/15 06:44:53;;;;;;;22.27;17.77;;;11.50;99.90;;;;;;5062106;28;20029;-87
2022/04/15 06:47:19;;;;;;;28.30;16.70;;;11.50;99.90;;;;;;5060714;28;20851;-87
2022/04/15 06:49:46;;;;;;;21.10;17.17;;;11.50;99.90;;;;;;5064873;28;20124;-86
2022/04/15 06:52:13;;;;;;;51.33;17.90;;;11.50;99.90;;;;;;5065427;28;20048;-87
2022/04/15 06:54:39;;;;;;;17.98;16.33;;;11.50;99.90;;;;;;5068837;28;20526;-87
2022/04/15 06:57:05;;;;;;;19.08;17.20;;;11.50;99.90;;;;;;5068744;28;20109;-87
2022/04/15 06:59:30;;;;;;;20.08;18.00;;;11.50;99.90;;;;;;5060910;28;20026;-87
2022/04/15 07:01:59;;;;;;;21.00;18.95;;;11.60;99.90;;;;;;5062588;28;20033;-87
2022/04/15 07:04:25;;;;;;;22.77;20.50;;;11.50;99.90;;;;;;5057323;28;20017;-87
2022/04/15 07:06:51;;;;;;;18.52;16.90;;;11.50;99.90;;;;;;5058479;28;20534;-88
2022/04/15 07:09:16;;;;;;;18.25;16.45;;;11.60;99.90;;;;;;5065985;28;20029;-87
2022/04/15 07:11:42;;;;;;;18.23;16.33;;;11.70;99.90;;;;;;5062139;28;20159;-87
2022/04/15 07:14:08;;;;;;;17.17;15.38;;;11.80;99.90;;;;;;5061434;28;20037;-87
2022/04/15 07:16:34;;;;;;;16.88;15.48;;;11.90;99.90;;;;;;5062239;28;20108;-87
2022/04/15 07:19:04;;;;;;;18.73;16.75;;;12.10;99.90;;;;;;5065197;28;20036;-86
2022/04/15 07:21:30;;;;;;;18.98;17.25;;;12.10;99.90;;;;;;5055107;28;20029;-87
2022/04/15 07:23:56;;;;;;;19.30;17.42;;;12.20;99.90;;;;;;5063645;28;20068;-86
2022/04/15 07:26:22;;;;;;;31.73;25.38;;;12.20;99.90;;;;;;5064237;28;20056;-87
2022/04/15 07:28:47;;;;;;;17.65;16.08;;;12.30;99.90;;;;;;5065439;28;20031;-87
2022/04/15 07:31:13;;;;;;;18.85;17.13;;;12.40;99.90;;;;;;5064893;28;20037;-86
2022/04/15 07:33:38;;;;;;;17.70;16.13;;;12.60;99.90;;;;;;5063255;28;20810;-87
2022/04/15 07:36:31;;;;;;;17.33;15.70;;;12.70;99.90;;;;;;5050829;28;20029;-87
2022/04/15 07:38:50;;;;;;;17.98;16.30;;;12.70;99.90;;;;;;5066531;28;20048;-85
2022/04/15 07:41:16;;;;;;;17.88;16.17;;;12.70;99.90;;;;;;5066665;28;20623;-87
2022/04/15 07:43:42;;;;;;;19.35;17.13;;;12.80;99.90;;;;;;5066094;28;20044;-87
2022/04/15 07:46:08;;;;;;;17.95;16.30;;;12.80;99.90;;;;;;5056743;28;20024;-86
2022/04/15 07:48:33;;;;;;;17.65;15.85;;;12.90;99.90;;;;;;5070366;28;20119;-87
2022/04/15 07:50:59;;;;;;;19.17;17.42;;;13.10;99.90;;;;;;5070790;28;20024;-88
2022/04/15 07:53:25;;;;;;;16.70;15.13;;;13.10;99.90;;;;;;5068940;28;20040;-87
2022/04/15 07:55:51;;;;;;;17.60;16.05;;;13.10;99.90;;;;;;5066920;28;20492;-87
2022/04/15 07:58:18;;;;;;;17.25;15.65;;;13.20;99.90;;;;;;5063742;28;20806;-87
2022/04/15 08:00:44;;;;;;;16.23;14.90;;;13.40;99.90;;;;;;5062891;28;20039;-88
2022/04/15 08:03:09;;;;;;;16.00;14.63;;;13.70;99.90;;;;;;5059688;28;20033;-87
2022/04/15 08:05:36;;;;;;;15.45;13.98;;;14.00;99.90;;;;;;5065336;28;20123;-88
2022/04/15 08:08:02;;;;;;;16.42;14.82;;;14.40;99.90;;;;;;5061807;28;20487;-88
2022/04/15 08:10:27;;;;;;;16.80;15.35;;;14.70;99.90;;;;;;5067771;28;20028;-87
2022/04/15 08:12:54;;;;;;;15.07;13.73;;;15.10;99.90;;;;;;5057550;28;20049;-88
2022/04/15 08:15:20;;;;;;;14.60;13.43;;;15.20;99.90;;;;;;5066332;28;20487;-88
2022/04/15 08:17:46;;;;;;;15.00;13.50;;;15.40;99.90;;;;;;5059507;28;20107;-88
2022/04/15 08:20:12;;;;;;;15.15;13.75;;;15.50;99.90;;;;;;5056096;28;20029;-87
2022/04/15 08:22:38;;;;;;;16.70;15.30;;;15.50;99.90;;;;;;5051373;28;20438;-87
2022/04/15 08:25:04;;;;;;;13.93;12.77;;;16.00;99.90;;;;;;5072687;28;20017;-88
2022/04/15 08:27:31;;;;;;;15.10;13.77;;;16.70;99.90;;;;;;5062958;28;20037;-87
2022/04/15 08:29:57;;;;;;;13.43;12.32;;;17.70;99.90;;;;;;5081692;28;20377;-87
2022/04/15 08:32:22;;;;;;;14.02;12.85;;;18.80;99.90;;;;;;5061462;28;20056;-87
2022/04/15 08:34:48;;;;;;;14.98;13.50;;;19.50;99.90;;;;;;5067805;28;20048;-88
2022/04/15 08:37:13;;;;;;;13.13;11.88;;;19.80;99.90;;;;;;5064581;28;20077;-87
2022/04/15 08:39:40;;;;;;;13.43;12.43;;;20.30;99.90;;;;;;5067455;28;20074;-88
2022/04/15 08:42:09;;;;;;;12.25;11.30;;;20.20;99.90;;;;;;5062319;28;20041;-87
2022/04/15 08:44:35;;;;;;;13.32;12.23;;;21.20;99.90;;;;;;5063940;28;20398;-87
2022/04/15 08:47:02;;;;;;;11.35;10.45;;;21.80;96.10;;;;;;5065387;28;20033;-88
2022/04/15 08:49:29;;;;;;;12.85;11.85;;;22.80;90.50;;;;;;5062472;28;20418;-87
2022/04/15 08:51:55;;;;;;;12.95;11.95;;;23.20;84.50;;;;;;5067930;28;20677;-87
2022/04/15 08:54:21;;;;;;;11.85;10.75;;;23.50;82.60;;;;;;5067143;28;20036;-86
2022/04/15 08:56:47;;;;;;;9.73;8.98;;;24.40;72.40;;;;;;5066332;28;20041;-88
2022/04/15 08:59:14;;;;;;;11.18;10.27;;;25.70;68.00;;;;;;5061134;28;20025;-88
2022/04/15 09:01:40;;;;;;;10.98;10.18;;;25.80;61.30;;;;;;5064393;28;20025;-88
2022/04/15 09:04:06;;;;;;;11.05;10.15;;;26.20;58.80;;;;;;5054858;28;20069;-87
2022/04/15 09:06:32;;;;;;;10.82;9.93;;;27.40;56.90;;;;;;5064204;28;20024;-86
2022/04/15 09:08:59;;;;;;;10.05;9.20;;;28.10;53.40;;;;;;5066142;28;20040;-86
2022/04/15 09:11:34;;;;;;;10.18;9.30;;;28.00;52.80;;;;;;5059760;28;20029;-85
2022/04/15 09:14:19;;;;;;;9.90;9.10;;;27.40;52.90;;;;;;5079871;28;20647;-86
2022/04/15 09:16:47;;;;;;;9.68;8.90;;;26.60;54.70;;;;;;5062369;28;20067;-86
2022/04/15 09:19:14;;;;;;;9.43;8.73;;;26.80;55.30;;;;;;5066085;28;20127;-86
2022/04/15 09:21:48;;;;;;;8.80;8.10;;;27.20;53.80;;;;;;5064194;28;20029;-86
2022/04/15 09:24:14;;;;;;;8.38;7.55;;;27.30;52.20;;;;;;5057838;28;20025;-85
2022/04/15 09:26:44;;;;;;;9.43;8.73;;;27.30;52.10;;;;;;5063584;28;20029;-86
2022/04/15 09:29:12;;;;;;;7.55;6.95;;;27.00;52.70;;;;;;5066334;28;20036;-86
2022/04/15 09:31:38;;;;;;;7.65;7.05;;;27.10;54.00;;;;;;5062487;28;20025;-86
2022/04/15 09:34:06;;;;;;;7.25;6.65;;;27.10;52.00;;;;;;5054840;28;20086;-86
2022/04/15 09:36:35;;;;;;;7.07;6.57;;;27.30;52.50;;;;;;5065432;28;20059;-86
2022/04/15 09:39:12;;;;;;;7.72;7.10;;;26.80;53.10;;;;;;5071868;28;20078;-86
2022/04/15 09:41:40;;;;;;;7.53;6.65;;;26.60;54.20;;;;;;5076272;28;20496;-86
2022/04/15 09:44:10;;;;;;;6.90;6.22;;;26.30;54.20;;;;;;5063765;28;20028;-86
2022/04/15 09:46:35;;;;;;;6.70;6.00;;;26.30;55.40;;;;;;5056056;28;20078;-86
2022/04/15 09:49:07;;;;;;;6.05;5.55;;;26.30;54.30;;;;;;5061240;28;20429;-86
2022/04/15 09:51:45;;;;;;;5.05;4.65;;;26.50;54.30;;;;;;5060885;28;20584;-85
2022/04/15 09:54:28;;;;;;;5.53;5.07;;;26.40;53.30;;;;;;5052774;28;20484;-86
2022/04/15 09:56:57;;;;;;;5.80;5.30;;;26.20;53.10;;;;;;5068347;28;20024;-87
2022/04/15 09:59:25;;;;;;;5.07;4.68;;;26.30;53.50;;;;;;5053846;28;20047;-87
2022/04/15 10:01:57;;;;;;;4.75;4.40;;;26.10;54.10;;;;;;5065511;28;20028;-86
2022/04/15 10:04:24;;;;;;;4.13;3.65;;;25.40;52.50;;;;;;5060301;28;20031;-86
2022/04/15 10:06:51;;;;;;;4.35;3.95;;;25.10;54.40;;;;;;5068015;28;20025;-85
2022/04/15 10:09:17;;;;;;;3.85;3.45;;;24.70;55.60;;;;;;5049553;28;20025;-86
2022/04/15 10:11:45;;;;;;;3.40;2.63;;;24.70;54.80;;;;;;5069114;28;20036;-87
2022/04/15 10:14:13;;;;;;;4.18;3.05;;;25.00;53.90;;;;;;5070475;28;20106;-87
2022/04/15 10:16:40;;;;;;;3.60;2.67;;;25.20;53.00;;;;;;5069587;28;20120;-86
2022/04/15 10:19:07;;;;;;;3.30;2.60;;;25.50;53.10;;;;;;5063820;28;20108;-87
2022/04/15 10:21:46;;;;;;;2.85;2.55;;;25.90;51.10;;;;;;5063599;28;20032;-87
2022/04/15 10:24:13;;;;;;;3.58;2.47;;;26.00;50.00;;;;;;5063642;28;20377;-88
2022/04/15 10:26:43;;;;;;;4.65;2.65;;;25.80;50.20;;;;;;5048371;28;20033;-86
2022/04/15 10:29:10;;;;;;;2.80;2.50;;;25.50;50.30;;;;;;5046824;28;20115;-86
2022/04/15 10:31:39;;;;;;;3.00;2.70;;;25.40;50.90;;;;;;5067478;28;20025;-87
2022/04/15 10:34:09;;;;;;;3.20;2.03;;;25.40;51.50;;;;;;5046273;28;20472;-87
2022/04/15 10:36:36;;;;;;;1.95;1.52;;;25.60;49.40;;;;;;5055266;28;20215;-88
2022/04/15 10:39:07;;;;;;;2.53;2.03;;;26.10;47.80;;;;;;5050227;28;20130;-87
2022/04/15 10:41:42;;;;;;;2.65;2.10;;;25.80;48.10;;;;;;5057878;28;20026;-86
2022/04/15 10:44:11;;;;;;;2.20;1.70;;;25.70;48.70;;;;;;5061545;28;20517;-86
2022/04/15 10:46:37;;;;;;;2.80;1.55;;;25.60;49.20;;;;;;5061625;28;20021;-86
2022/04/15 10:49:23;;;;;;;2.78;1.60;;;26.50;48.00;;;;;;5063245;28;20055;-87
2022/04/15 10:51:57;;;;;;;2.45;1.30;;;26.90;48.00;;;;;;5069908;28;20035;-86
2022/04/15 10:54:30;;;;;;;2.42;1.80;;;27.80;46.30;;;;;;5050539;28;20033;-87
2022/04/15 10:56:59;;;;;;;2.92;1.60;;;27.70;44.90;;;;;;5065807;28;20029;-87
2022/04/15 11:02:44;;;;;;;2.40;1.58;;;28.40;43.70;;;;;;5058721;28;20106;-88
2022/04/15 11:05:12;;;;;;;2.45;1.52;;;28.00;43.20;;;;;;5055265;28;20040;-87
2022/04/15 11:07:48;;;;;;;1.40;1.05;;;27.10;44.30;;;;;;5071437;28;20032;-87
2022/04/15 11:10:38;;;;;;;1.83;1.20;;;26.60;44.50;;;;;;5085563;28;20103;-87
2022/04/15 11:13:04;;;;;;;1.90;1.50;;;26.50;47.90;;;;;;5066269;28;20024;-91
2022/04/15 11:15:57;;;;;;;2.33;1.50;;;26.80;45.20;;;;;;5076050;28;20483;-90
2022/04/15 11:18:24;;;;;;;1.92;1.17;;;27.30;43.70;;;;;;5049933;28;20029;-90
2022/04/15 11:20:50;;;;;;;1.85;1.20;;;27.00;46.30;;;;;;5060918;28;20052;-88
2022/04/15 11:23:16;;;;;;;2.08;1.20;;;27.30;46.10;;;;;;5068571;28;20488;-89
2022/04/15 11:25:42;;;;;;;2.42;1.40;;;27.60;45.50;;;;;;5066300;28;20028;-89
2022/04/15 11:28:09;;;;;;;1.98;1.30;;;27.70;44.80;;;;;;5067924;28;20089;-92
2022/04/15 11:30:38;;;;;;;3.47;1.73;;;27.90;44.10;;;;;;5067184;28;20803;-91
2022/04/15 11:33:05;;;;;;;2.30;1.40;;;27.10;45.50;;;;;;5069772;28;20037;-88
2022/04/15 11:35:35;;;;;;;1.52;1.20;;;26.60;46.10;;;;;;5086327;28;20081;-89
2022/04/15 11:38:02;;;;;;;2.50;1.40;;;26.50;45.90;;;;;;5074315;28;20032;-89
2022/04/15 11:40:30;;;;;;;2.05;1.50;;;26.50;46.30;;;;;;5088048;28;20028;-89
2022/04/15 11:43:00;;;;;;;2.92;1.60;;;26.20;46.00;;;;;;5086064;28;20041;-89
2022/04/15 11:45:40;;;;;;;2.75;1.20;;;25.90;46.50;;;;;;5087316;28;20026;-88
2022/04/15 11:48:19;;;;;;;3.80;1.42;;;26.10;46.50;;;;;;5078389;28;20037;-87
2022/04/15 11:50:45;;;;;;;1.90;1.30;;;25.70;45.90;;;;;;5066589;28;20033;-86
2022/04/15 11:53:13;;;;;;;1.52;1.33;;;25.10;47.30;;;;;;5072779;28;20032;-87
2022/04/15 11:55:53;;;;;;;1.52;1.20;;;25.30;48.10;;;;;;5061810;28;20040;-88
2022/04/15 11:58:21;;;;;;;1.65;0.88;;;25.80;47.60;;;;;;5068755;28;20028;-86
2022/04/15 12:00:54;;;;;;;1.90;1.20;;;26.10;45.90;;;;;;5061299;28;20051;-87
2022/04/15 12:03:20;;;;;;;2.05;1.25;;;25.30;47.60;;;;;;5070098;28;20024;-88
2022/04/15 12:05:46;;;;;;;2.28;1.27;;;24.30;47.50;;;;;;5067829;28;20078;-85
2022/04/15 12:08:12;;;;;;;2.72;2.00;;;24.00;49.50;;;;;;5055878;28;20098;-87
2022/04/15 12:10:39;;;;;;;2.75;1.20;;;23.70;50.20;;;;;;5069137;28;20033;-86
2022/04/15 12:13:08;;;;;;;3.13;1.40;;;23.80;49.40;;;;;;5058045;28;20032;-88
2022/04/15 12:15:34;;;;;;;1.77;0.95;;;23.70;48.60;;;;;;5068386;28;20076;-87
2022/04/15 12:18:04;;;;;;;2.00;1.25;;;23.90;49.10;;;;;;5062203;28;20035;-87
2022/04/15 12:20:34;;;;;;;2.07;1.20;;;23.70;49.20;;;;;;5067903;28;20158;-88
2022/04/15 12:23:00;;;;;;;0.90;0.90;;;23.70;50.70;;;;;;5066927;28;20025;-87
2022/04/15 12:25:26;;;;;;;1.60;1.15;;;24.50;49.70;;;;;;5073816;28;20019;-88
2022/04/15 12:27:55;;;;;;;1.65;1.08;;;25.40;49.30;;;;;;5064344;28;20431;-87
2022/04/15 12:30:37;;;;;;;1.77;1.15;;;26.10;45.50;;;;;;5062142;28;20017;-89
2022/04/15 12:33:10;;;;;;;1.23;1.13;;;25.80;45.60;;;;;;5062570;28;20032;-86
2022/04/15 12:35:37;;;;;;;1.13;1.02;;;25.50;46.30;;;;;;5061311;28;20622;-87